sensor_id;sensor_type;location;lat;lon;timestamp;P1;durP1;ratioP1;P2;durP2;ratioP2
61188;SDS011;47054;39.716;2.904;2023-04-22T00:00:47;8.27;;;4.50;;
61188;SDS011;47054;39.716;2.904;2023-04-22T00:03:31;9.98;;;4.85;;
61188;SDS011;47054;39.716;2.904;2023-04-22T00:06:17;9.48;;;4.80;;
61188;SDS011;47054;39.716;2.904;2023-04-22T00:09:02;9.07;;;5.03;;
61188;SDS011;47054;39.716;2.904;2023-04-22T00:11:46;7.47;;;4.20;;
61188;SDS011;47054;39.716;2.904;2023-04-22T00:14:31;10.05;;;4.45;;
61188;SDS011;47054;39.716;2.904;2023-04-22T00:17:16;10.18;;;4.72;;
61188;SDS011;47054;39.716;2.904;2023-04-22T00:20:00;7.82;;;4.40;;
61188;SDS011;47054;39.716;2.904;2023-04-22T00:22:45;9.45;;;4.85;;
61188;SDS011;47054;39.716;2.904;2023-04-22T00:25:30;8.85;;;4.35;;
61188;SDS011;47054;39.716;2.904;2023-04-22T00:28:14;8.20;;;4.25;;
61188;SDS011;47054;39.716;2.904;2023-04-22T00:30:59;8.80;;;4.10;;
61188;SDS011;47054;39.716;2.904;2023-04-22T00:33:46;8.98;;;4.57;;
61188;SDS011;47054;39.716;2.904;2023-04-22T00:36:30;7.60;;;4.32;;
61188;SDS011;47054;39.716;2.904;2023-04-22T00:39:16;9.75;;;4.78;;
61188;SDS011;47054;39.716;2.904;2023-04-22T00:42:00;6.93;;;3.63;;
61188;SDS011;47054;39.716;2.904;2023-04-22T00:44:46;8.63;;;4.18;;
61188;SDS011;47054;39.716;2.904;2023-04-22T00:47:31;7.82;;;4.00;;
61188;SDS011;47054;39.716;2.904;2023-04-22T00:50:16;6.40;;;4.05;;
61188;SDS011;47054;39.716;2.904;2023-04-22T00:53:00;9.13;;;4.18;;
61188;SDS011;47054;39.716;2.904;2023-04-22T00:55:45;5.50;;;3.80;;
61188;SDS011;47054;39.716;2.904;2023-04-22T00:58:30;6.82;;;4.30;;
61188;SDS011;47054;39.716;2.904;2023-04-22T01:01:16;7.00;;;4.25;;
61188;SDS011;47054;39.716;2.904;2023-04-22T01:04:02;8.32;;;4.00;;
61188;SDS011;47054;39.716;2.904;2023-04-22T01:06:50;5.95;;;3.58;;
61188;SDS011;47054;39.716;2.904;2023-04-22T01:09:35;6.72;;;3.92;;
61188;SDS011;47054;39.716;2.904;2023-04-22T01:12:21;10.57;;;3.70;;
61188;SDS011;47054;39.716;2.904;2023-04-22T01:15:05;5.70;;;3.85;;
61188;SDS011;47054;39.716;2.904;2023-04-22T01:17:51;7.10;;;3.60;;
61188;SDS011;47054;39.716;2.904;2023-04-22T01:20:36;6.40;;;3.92;;
61188;SDS011;47054;39.716;2.904;2023-04-22T01:23:21;7.07;;;4.20;;
61188;SDS011;47054;39.716;2.904;2023-04-22T01:26:06;6.10;;;3.53;;
61188;SDS011;47054;39.716;2.904;2023-04-22T01:28:51;6.05;;;3.63;;
61188;SDS011;47054;39.716;2.904;2023-04-22T01:31:36;5.90;;;3.60;;
61188;SDS011;47054;39.716;2.904;2023-04-22T01:34:22;6.03;;;3.28;;
61188;SDS011;47054;39.716;2.904;2023-04-22T01:37:07;7.78;;;3.38;;
61188;SDS011;47054;39.716;2.904;2023-04-22T01:39:52;6.65;;;3.60;;
61188;SDS011;47054;39.716;2.904;2023-04-22T01:42:36;5.78;;;3.42;;
61188;SDS011;47054;39.716;2.904;2023-04-22T01:45:21;6.85;;;3.42;;
61188;SDS011;47054;39.716;2.904;2023-04-22T01:48:05;6.72;;;3.35;;
61188;SDS011;47054;39.716;2.904;2023-04-22T01:50:50;6.93;;;3.78;;
61188;SDS011;47054;39.716;2.904;2023-04-22T01:53:34;6.07;;;3.80;;
61188;SDS011;47054;39.716;2.904;2023-04-22T01:56:19;6.55;;;3.53;;
61188;SDS011;47054;39.716;2.904;2023-04-22T01:59:06;5.70;;;3.50;;
61188;SDS011;47054;39.716;2.904;2023-04-22T02:01:53;6.03;;;3.28;;
61188;SDS011;47054;39.716;2.904;2023-04-22T02:04:38;6.78;;;3.33;;
61188;SDS011;47054;39.716;2.904;2023-04-22T02:07:22;5.65;;;3.40;;
61188;SDS011;47054;39.716;2.904;2023-04-22T02:10:07;5.70;;;3.22;;
61188;SDS011;47054;39.716;2.904;2023-04-22T02:12:52;5.35;;;3.20;;
61188;SDS011;47054;39.716;2.904;2023-04-22T02:15:37;8.07;;;3.22;;
61188;SDS011;47054;39.716;2.904;2023-04-22T02:18:23;5.15;;;2.78;;
61188;SDS011;47054;39.716;2.904;2023-04-22T02:21:07;6.47;;;3.08;;
61188;SDS011;47054;39.716;2.904;2023-04-22T02:23:52;5.70;;;3.40;;
61188;SDS011;47054;39.716;2.904;2023-04-22T02:26:37;5.28;;;3.15;;
61188;SDS011;47054;39.716;2.904;2023-04-22T02:29:21;5.20;;;3.03;;
61188;SDS011;47054;39.716;2.904;2023-04-22T02:32:07;5.80;;;3.33;;
61188;SDS011;47054;39.716;2.904;2023-04-22T02:34:52;6.15;;;3.13;;
61188;SDS011;47054;39.716;2.904;2023-04-22T02:37:38;4.60;;;2.95;;
61188;SDS011;47054;39.716;2.904;2023-04-22T02:40:23;5.13;;;3.05;;
61188;SDS011;47054;39.716;2.904;2023-04-22T02:43:09;5.18;;;2.97;;
61188;SDS011;47054;39.716;2.904;2023-04-22T02:45:53;5.35;;;3.30;;
61188;SDS011;47054;39.716;2.904;2023-04-22T02:48:38;5.45;;;2.90;;
61188;SDS011;47054;39.716;2.904;2023-04-22T02:51:22;5.80;;;3.45;;
61188;SDS011;47054;39.716;2.904;2023-04-22T02:54:07;5.18;;;2.88;;
61188;SDS011;47054;39.716;2.904;2023-04-22T02:56:52;6.47;;;3.05;;
61188;SDS011;47054;39.716;2.904;2023-04-22T02:59:36;5.82;;;3.00;;
61188;SDS011;47054;39.716;2.904;2023-04-22T03:02:21;4.40;;;2.85;;
61188;SDS011;47054;39.716;2.904;2023-04-22T03:05:26;4.15;;;2.78;;
61188;SDS011;47054;39.716;2.904;2023-04-22T03:08:11;4.60;;;2.70;;
61188;SDS011;47054;39.716;2.904;2023-04-22T03:10:55;5.65;;;2.85;;
61188;SDS011;47054;39.716;2.904;2023-04-22T03:13:40;5.07;;;3.08;;
61188;SDS011;47054;39.716;2.904;2023-04-22T03:16:24;7.20;;;3.17;;
61188;SDS011;47054;39.716;2.904;2023-04-22T03:19:12;5.05;;;2.80;;
61188;SDS011;47054;39.716;2.904;2023-04-22T03:21:56;4.75;;;2.95;;
61188;SDS011;47054;39.716;2.904;2023-04-22T03:24:42;4.60;;;2.70;;
61188;SDS011;47054;39.716;2.904;2023-04-22T03:27:27;4.57;;;2.80;;
61188;SDS011;47054;39.716;2.904;2023-04-22T03:30:12;4.00;;;2.60;;
61188;SDS011;47054;39.716;2.904;2023-04-22T03:32:57;4.18;;;2.50;;
61188;SDS011;47054;39.716;2.904;2023-04-22T03:35:48;4.57;;;2.75;;
61188;SDS011;47054;39.716;2.904;2023-04-22T03:38:34;4.15;;;2.45;;
61188;SDS011;47054;39.716;2.904;2023-04-22T03:41:19;5.25;;;2.70;;
61188;SDS011;47054;39.716;2.904;2023-04-22T03:44:05;6.22;;;2.92;;
61188;SDS011;47054;39.716;2.904;2023-04-22T03:46:52;4.05;;;2.60;;
61188;SDS011;47054;39.716;2.904;2023-04-22T03:49:40;4.13;;;2.45;;
61188;SDS011;47054;39.716;2.904;2023-04-22T03:52:25;5.65;;;2.83;;
61188;SDS011;47054;39.716;2.904;2023-04-22T03:55:16;3.75;;;2.33;;
61188;SDS011;47054;39.716;2.904;2023-04-22T03:58:01;3.95;;;2.55;;
61188;SDS011;47054;39.716;2.904;2023-04-22T04:00:45;4.05;;;2.70;;
61188;SDS011;47054;39.716;2.904;2023-04-22T04:03:33;4.35;;;2.50;;
61188;SDS011;47054;39.716;2.904;2023-04-22T04:06:18;6.63;;;2.75;;
61188;SDS011;47054;39.716;2.904;2023-04-22T04:09:03;4.53;;;2.60;;
61188;SDS011;47054;39.716;2.904;2023-04-22T04:11:49;5.20;;;2.70;;
61188;SDS011;47054;39.716;2.904;2023-04-22T04:14:35;3.58;;;2.47;;
61188;SDS011;47054;39.716;2.904;2023-04-22T04:17:21;4.00;;;2.40;;
61188;SDS011;47054;39.716;2.904;2023-04-22T04:20:09;3.88;;;2.40;;
61188;SDS011;47054;39.716;2.904;2023-04-22T04:22:56;3.60;;;2.33;;
61188;SDS011;47054;39.716;2.904;2023-04-22T04:25:41;4.43;;;2.75;;
61188;SDS011;47054;39.716;2.904;2023-04-22T04:28:29;3.70;;;2.50;;
61188;SDS011;47054;39.716;2.904;2023-04-22T04:31:16;4.38;;;2.42;;
61188;SDS011;47054;39.716;2.904;2023-04-22T04:34:01;4.00;;;2.47;;
61188;SDS011;47054;39.716;2.904;2023-04-22T04:36:46;4.18;;;2.40;;
61188;SDS011;47054;39.716;2.904;2023-04-22T04:39:38;4.07;;;2.45;;
61188;SDS011;47054;39.716;2.904;2023-04-22T04:42:23;5.05;;;2.60;;
61188;SDS011;47054;39.716;2.904;2023-04-22T04:45:16;4.72;;;2.80;;
61188;SDS011;47054;39.716;2.904;2023-04-22T04:48:02;5.00;;;2.15;;
61188;SDS011;47054;39.716;2.904;2023-04-22T04:50:53;3.92;;;2.33;;
61188;SDS011;47054;39.716;2.904;2023-04-22T04:53:39;4.72;;;2.38;;
61188;SDS011;47054;39.716;2.904;2023-04-22T04:56:23;3.80;;;2.30;;
61188;SDS011;47054;39.716;2.904;2023-04-22T04:59:09;5.00;;;2.85;;
61188;SDS011;47054;39.716;2.904;2023-04-22T05:01:54;5.30;;;3.17;;
61188;SDS011;47054;39.716;2.904;2023-04-22T05:04:39;9.45;;;4.97;;
61188;SDS011;47054;39.716;2.904;2023-04-22T05:07:24;10.05;;;4.75;;
61188;SDS011;47054;39.716;2.904;2023-04-22T05:10:10;15.07;;;6.43;;
61188;SDS011;47054;39.716;2.904;2023-04-22T05:12:55;13.93;;;7.20;;
61188;SDS011;47054;39.716;2.904;2023-04-22T05:15:42;12.73;;;6.22;;
61188;SDS011;47054;39.716;2.904;2023-04-22T05:18:27;14.10;;;7.55;;
61188;SDS011;47054;39.716;2.904;2023-04-22T05:21:15;16.48;;;7.25;;
61188;SDS011;47054;39.716;2.904;2023-04-22T05:24:01;17.52;;;8.68;;
61188;SDS011;47054;39.716;2.904;2023-04-22T05:26:46;17.58;;;8.75;;
61188;SDS011;47054;39.716;2.904;2023-04-22T05:29:36;17.85;;;8.45;;
61188;SDS011;47054;39.716;2.904;2023-04-22T05:32:22;15.43;;;7.75;;
61188;SDS011;47054;39.716;2.904;2023-04-22T05:35:07;19.90;;;9.13;;
61188;SDS011;47054;39.716;2.904;2023-04-22T05:37:54;21.17;;;10.00;;
61188;SDS011;47054;39.716;2.904;2023-04-22T05:40:38;24.17;;;10.18;;
61188;SDS011;47054;39.716;2.904;2023-04-22T05:43:25;19.45;;;9.30;;
61188;SDS011;47054;39.716;2.904;2023-04-22T05:46:20;16.05;;;8.30;;
61188;SDS011;47054;39.716;2.904;2023-04-22T05:49:06;17.83;;;8.32;;
61188;SDS011;47054;39.716;2.904;2023-04-22T05:52:29;16.77;;;8.50;;
61188;SDS011;47054;39.716;2.904;2023-04-22T05:55:28;18.98;;;8.95;;
61188;SDS011;47054;39.716;2.904;2023-04-22T05:58:13;19.38;;;8.95;;
61188;SDS011;47054;39.716;2.904;2023-04-22T06:01:10;18.40;;;8.50;;
61188;SDS011;47054;39.716;2.904;2023-04-22T06:04:17;18.35;;;8.68;;
61188;SDS011;47054;39.716;2.904;2023-04-22T06:07:02;19.10;;;8.82;;
61188;SDS011;47054;39.716;2.904;2023-04-22T06:09:49;17.25;;;8.10;;
61188;SDS011;47054;39.716;2.904;2023-04-22T06:12:34;18.42;;;8.20;;
61188;SDS011;47054;39.716;2.904;2023-04-22T06:15:19;17.80;;;8.35;;
61188;SDS011;47054;39.716;2.904;2023-04-22T06:18:05;16.13;;;8.27;;
61188;SDS011;47054;39.716;2.904;2023-04-22T06:20:50;19.20;;;8.15;;
61188;SDS011;47054;39.716;2.904;2023-04-22T06:23:35;18.67;;;8.13;;
61188;SDS011;47054;39.716;2.904;2023-04-22T06:26:20;18.30;;;8.07;;
61188;SDS011;47054;39.716;2.904;2023-04-22T06:29:05;15.77;;;7.63;;
61188;SDS011;47054;39.716;2.904;2023-04-22T06:31:51;16.33;;;7.55;;
61188;SDS011;47054;39.716;2.904;2023-04-22T06:34:38;14.00;;;7.32;;
61188;SDS011;47054;39.716;2.904;2023-04-22T06:37:23;15.05;;;7.60;;
61188;SDS011;47054;39.716;2.904;2023-04-22T06:40:09;15.90;;;7.65;;
61188;SDS011;47054;39.716;2.904;2023-04-22T06:43:12;15.60;;;7.80;;
61188;SDS011;47054;39.716;2.904;2023-04-22T06:46:20;17.10;;;7.82;;
61188;SDS011;47054;39.716;2.904;2023-04-22T06:49:10;14.73;;;7.72;;
61188;SDS011;47054;39.716;2.904;2023-04-22T06:52:27;14.57;;;7.07;;
61188;SDS011;47054;39.716;2.904;2023-04-22T06:55:14;16.73;;;7.80;;
61188;SDS011;47054;39.716;2.904;2023-04-22T06:57:59;14.90;;;7.57;;
61188;SDS011;47054;39.716;2.904;2023-04-22T07:00:44;15.02;;;7.32;;
61188;SDS011;47054;39.716;2.904;2023-04-22T07:03:29;15.48;;;7.45;;
61188;SDS011;47054;39.716;2.904;2023-04-22T07:06:25;15.45;;;7.25;;
61188;SDS011;47054;39.716;2.904;2023-04-22T07:09:11;14.18;;;7.00;;
61188;SDS011;47054;39.716;2.904;2023-04-22T07:11:56;14.30;;;6.97;;
61188;SDS011;47054;39.716;2.904;2023-04-22T07:14:44;16.55;;;7.32;;
61188;SDS011;47054;39.716;2.904;2023-04-22T07:17:29;16.33;;;7.35;;
61188;SDS011;47054;39.716;2.904;2023-04-22T07:20:13;14.38;;;7.07;;
61188;SDS011;47054;39.716;2.904;2023-04-22T07:22:58;14.43;;;7.20;;
61188;SDS011;47054;39.716;2.904;2023-04-22T07:25:43;15.48;;;7.40;;
61188;SDS011;47054;39.716;2.904;2023-04-22T07:28:27;12.95;;;6.70;;
61188;SDS011;47054;39.716;2.904;2023-04-22T07:31:12;14.23;;;6.85;;
61188;SDS011;47054;39.716;2.904;2023-04-22T07:33:56;13.48;;;6.70;;
61188;SDS011;47054;39.716;2.904;2023-04-22T07:36:41;15.00;;;6.53;;
61188;SDS011;47054;39.716;2.904;2023-04-22T07:39:25;15.25;;;6.65;;
61188;SDS011;47054;39.716;2.904;2023-04-22T07:42:10;14.73;;;6.82;;
61188;SDS011;47054;39.716;2.904;2023-04-22T07:44:55;12.05;;;6.07;;
61188;SDS011;47054;39.716;2.904;2023-04-22T07:47:40;14.18;;;6.47;;
61188;SDS011;47054;39.716;2.904;2023-04-22T07:50:25;12.55;;;6.55;;
61188;SDS011;47054;39.716;2.904;2023-04-22T07:53:09;14.65;;;6.53;;
61188;SDS011;47054;39.716;2.904;2023-04-22T07:55:57;11.98;;;6.47;;
61188;SDS011;47054;39.716;2.904;2023-04-22T07:58:41;12.65;;;6.20;;
61188;SDS011;47054;39.716;2.904;2023-04-22T08:01:25;11.32;;;5.78;;
61188;SDS011;47054;39.716;2.904;2023-04-22T08:04:10;16.38;;;6.82;;
61188;SDS011;47054;39.716;2.904;2023-04-22T08:06:55;13.82;;;6.43;;
61188;SDS011;47054;39.716;2.904;2023-04-22T08:09:40;13.70;;;6.22;;
61188;SDS011;47054;39.716;2.904;2023-04-22T08:12:24;12.48;;;6.25;;
61188;SDS011;47054;39.716;2.904;2023-04-22T08:15:09;11.35;;;5.80;;
61188;SDS011;47054;39.716;2.904;2023-04-22T08:17:54;12.93;;;6.75;;
61188;SDS011;47054;39.716;2.904;2023-04-22T08:20:39;12.00;;;6.05;;
61188;SDS011;47054;39.716;2.904;2023-04-22T08:23:24;12.85;;;5.95;;
61188;SDS011;47054;39.716;2.904;2023-04-22T08:26:09;14.63;;;6.05;;
61188;SDS011;47054;39.716;2.904;2023-04-22T08:28:59;11.70;;;6.10;;
61188;SDS011;47054;39.716;2.904;2023-04-22T08:31:44;10.95;;;5.63;;
61188;SDS011;47054;39.716;2.904;2023-04-22T08:34:29;12.98;;;5.55;;
61188;SDS011;47054;39.716;2.904;2023-04-22T08:37:14;10.63;;;5.40;;
61188;SDS011;47054;39.716;2.904;2023-04-22T08:39:59;15.65;;;7.68;;
61188;SDS011;47054;39.716;2.904;2023-04-22T08:42:43;11.43;;;5.55;;
61188;SDS011;47054;39.716;2.904;2023-04-22T08:45:28;12.30;;;5.90;;
61188;SDS011;47054;39.716;2.904;2023-04-22T08:48:13;14.80;;;5.85;;
61188;SDS011;47054;39.716;2.904;2023-04-22T08:50:59;12.57;;;5.78;;
61188;SDS011;47054;39.716;2.904;2023-04-22T08:53:44;10.93;;;5.35;;
61188;SDS011;47054;39.716;2.904;2023-04-22T08:56:30;11.13;;;5.38;;
61188;SDS011;47054;39.716;2.904;2023-04-22T08:59:15;11.75;;;5.20;;
61188;SDS011;47054;39.716;2.904;2023-04-22T09:01:59;11.75;;;5.25;;
61188;SDS011;47054;39.716;2.904;2023-04-22T09:04:46;12.07;;;5.63;;
61188;SDS011;47054;39.716;2.904;2023-04-22T09:07:34;11.23;;;5.00;;
61188;SDS011;47054;39.716;2.904;2023-04-22T09:10:20;11.15;;;5.00;;
61188;SDS011;47054;39.716;2.904;2023-04-22T09:13:05;11.13;;;4.53;;
61188;SDS011;47054;39.716;2.904;2023-04-22T09:15:50;10.18;;;5.03;;
61188;SDS011;47054;39.716;2.904;2023-04-22T09:18:38;12.15;;;5.15;;
61188;SDS011;47054;39.716;2.904;2023-04-22T09:21:25;12.30;;;5.00;;
61188;SDS011;47054;39.716;2.904;2023-04-22T09:24:11;10.93;;;5.07;;
61188;SDS011;47054;39.716;2.904;2023-04-22T09:26:55;9.43;;;4.70;;
61188;SDS011;47054;39.716;2.904;2023-04-22T09:29:45;10.15;;;4.85;;
61188;SDS011;47054;39.716;2.904;2023-04-22T09:32:33;10.23;;;4.43;;
61188;SDS011;47054;39.716;2.904;2023-04-22T09:35:21;8.65;;;4.47;;
61188;SDS011;47054;39.716;2.904;2023-04-22T09:38:10;12.10;;;5.07;;
61188;SDS011;47054;39.716;2.904;2023-04-22T09:40:55;12.95;;;5.53;;
61188;SDS011;47054;39.716;2.904;2023-04-22T09:43:39;10.13;;;4.65;;
61188;SDS011;47054;39.716;2.904;2023-04-22T09:46:24;8.57;;;4.88;;
61188;SDS011;47054;39.716;2.904;2023-04-22T09:49:11;9.40;;;4.70;;
61188;SDS011;47054;39.716;2.904;2023-04-22T09:51:59;9.57;;;4.43;;
61188;SDS011;47054;39.716;2.904;2023-04-22T09:54:50;12.38;;;4.68;;
61188;SDS011;47054;39.716;2.904;2023-04-22T09:57:35;10.07;;;4.50;;
61188;SDS011;47054;39.716;2.904;2023-04-22T10:00:24;9.05;;;4.45;;
61188;SDS011;47054;39.716;2.904;2023-04-22T10:03:12;11.35;;;4.60;;
61188;SDS011;47054;39.716;2.904;2023-04-22T10:05:57;8.82;;;4.47;;
61188;SDS011;47054;39.716;2.904;2023-04-22T10:08:42;10.05;;;4.68;;
61188;SDS011;47054;39.716;2.904;2023-04-22T10:11:27;10.05;;;4.28;;
61188;SDS011;47054;39.716;2.904;2023-04-22T10:14:12;9.75;;;4.60;;
61188;SDS011;47054;39.716;2.904;2023-04-22T10:16:59;9.13;;;4.13;;
61188;SDS011;47054;39.716;2.904;2023-04-22T10:19:46;13.35;;;4.15;;
61188;SDS011;47054;39.716;2.904;2023-04-22T10:22:32;9.40;;;3.80;;
61188;SDS011;47054;39.716;2.904;2023-04-22T10:25:21;10.00;;;4.65;;
61188;SDS011;47054;39.716;2.904;2023-04-22T10:28:09;10.15;;;4.22;;
61188;SDS011;47054;39.716;2.904;2023-04-22T10:30:54;11.10;;;4.15;;
61188;SDS011;47054;39.716;2.904;2023-04-22T10:33:39;10.75;;;5.18;;
61188;SDS011;47054;39.716;2.904;2023-04-22T10:36:24;7.25;;;3.85;;
61188;SDS011;47054;39.716;2.904;2023-04-22T10:39:15;8.57;;;3.97;;
61188;SDS011;47054;39.716;2.904;2023-04-22T10:44:54;6.95;;;3.70;;
61188;SDS011;47054;39.716;2.904;2023-04-22T10:47:45;7.88;;;3.70;;
61188;SDS011;47054;39.716;2.904;2023-04-22T10:50:30;10.77;;;3.83;;
61188;SDS011;47054;39.716;2.904;2023-04-22T10:53:35;9.25;;;3.60;;
61188;SDS011;47054;39.716;2.904;2023-04-22T10:56:20;10.55;;;3.60;;
61188;SDS011;47054;39.716;2.904;2023-04-22T10:59:14;7.40;;;3.92;;
61188;SDS011;47054;39.716;2.904;2023-04-22T11:02:01;10.15;;;3.63;;
61188;SDS011;47054;39.716;2.904;2023-04-22T11:04:49;10.00;;;4.20;;
61188;SDS011;47054;39.716;2.904;2023-04-22T11:07:37;8.38;;;3.72;;
61188;SDS011;47054;39.716;2.904;2023-04-22T11:13:51;9.30;;;3.88;;
61188;SDS011;47054;39.716;2.904;2023-04-22T11:16:37;13.38;;;4.60;;
61188;SDS011;47054;39.716;2.904;2023-04-22T11:19:22;11.82;;;4.13;;
61188;SDS011;47054;39.716;2.904;2023-04-22T11:22:06;8.07;;;3.63;;
61188;SDS011;47054;39.716;2.904;2023-04-22T11:24:54;9.75;;;3.90;;
61188;SDS011;47054;39.716;2.904;2023-04-22T11:27:40;12.77;;;3.88;;
61188;SDS011;47054;39.716;2.904;2023-04-22T11:30:27;8.05;;;3.25;;
61188;SDS011;47054;39.716;2.904;2023-04-22T11:33:13;5.93;;;3.35;;
61188;SDS011;47054;39.716;2.904;2023-04-22T11:35:58;12.18;;;3.70;;
61188;SDS011;47054;39.716;2.904;2023-04-22T11:38:53;10.43;;;3.88;;
61188;SDS011;47054;39.716;2.904;2023-04-22T11:41:40;9.05;;;3.50;;
61188;SDS011;47054;39.716;2.904;2023-04-22T11:44:24;11.63;;;3.55;;
61188;SDS011;47054;39.716;2.904;2023-04-22T11:47:09;8.85;;;3.95;;
61188;SDS011;47054;39.716;2.904;2023-04-22T11:49:59;8.60;;;3.50;;
61188;SDS011;47054;39.716;2.904;2023-04-22T11:55:37;9.38;;;3.10;;
61188;SDS011;47054;39.716;2.904;2023-04-22T11:58:24;7.60;;;3.60;;
61188;SDS011;47054;39.716;2.904;2023-04-22T12:01:11;7.78;;;3.58;;
61188;SDS011;47054;39.716;2.904;2023-04-22T12:03:59;9.07;;;3.05;;
61188;SDS011;47054;39.716;2.904;2023-04-22T12:06:44;7.13;;;3.08;;
61188;SDS011;47054;39.716;2.904;2023-04-22T12:09:30;8.48;;;3.45;;
61188;SDS011;47054;39.716;2.904;2023-04-22T12:12:15;6.43;;;3.00;;
61188;SDS011;47054;39.716;2.904;2023-04-22T12:15:09;7.13;;;4.03;;
61188;SDS011;47054;39.716;2.904;2023-04-22T12:17:55;7.22;;;3.53;;
61188;SDS011;47054;39.716;2.904;2023-04-22T12:20:40;8.45;;;3.33;;
61188;SDS011;47054;39.716;2.904;2023-04-22T12:23:25;7.95;;;3.17;;
61188;SDS011;47054;39.716;2.904;2023-04-22T12:26:12;7.18;;;3.05;;
61188;SDS011;47054;39.716;2.904;2023-04-22T12:28:57;6.10;;;3.25;;
61188;SDS011;47054;39.716;2.904;2023-04-22T12:31:43;8.02;;;3.08;;
61188;SDS011;47054;39.716;2.904;2023-04-22T12:34:28;8.10;;;3.20;;
61188;SDS011;47054;39.716;2.904;2023-04-22T12:37:12;8.43;;;3.00;;
61188;SDS011;47054;39.716;2.904;2023-04-22T12:39:57;8.18;;;3.25;;
61188;SDS011;47054;39.716;2.904;2023-04-22T12:42:42;5.63;;;3.15;;
61188;SDS011;47054;39.716;2.904;2023-04-22T12:45:26;5.82;;;2.95;;
61188;SDS011;47054;39.716;2.904;2023-04-22T12:48:11;7.20;;;3.25;;
61188;SDS011;47054;39.716;2.904;2023-04-22T12:50:56;7.28;;;3.08;;
61188;SDS011;47054;39.716;2.904;2023-04-22T12:53:41;7.60;;;3.30;;
61188;SDS011;47054;39.716;2.904;2023-04-22T12:56:26;6.03;;;3.00;;
61188;SDS011;47054;39.716;2.904;2023-04-22T12:59:11;7.78;;;3.15;;
61188;SDS011;47054;39.716;2.904;2023-04-22T13:01:56;7.82;;;3.40;;
61188;SDS011;47054;39.716;2.904;2023-04-22T13:04:41;7.03;;;2.95;;
61188;SDS011;47054;39.716;2.904;2023-04-22T13:07:25;7.05;;;3.13;;
61188;SDS011;47054;39.716;2.904;2023-04-22T13:10:11;6.97;;;2.80;;
61188;SDS011;47054;39.716;2.904;2023-04-22T13:12:57;7.63;;;2.90;;
61188;SDS011;47054;39.716;2.904;2023-04-22T13:15:43;7.80;;;2.95;;
61188;SDS011;47054;39.716;2.904;2023-04-22T13:18:27;8.15;;;3.00;;
61188;SDS011;47054;39.716;2.904;2023-04-22T13:21:12;7.28;;;2.90;;
61188;SDS011;47054;39.716;2.904;2023-04-22T13:23:58;6.90;;;2.83;;
61188;SDS011;47054;39.716;2.904;2023-04-22T13:26:42;7.40;;;2.83;;
61188;SDS011;47054;39.716;2.904;2023-04-22T13:29:27;8.27;;;3.20;;
61188;SDS011;47054;39.716;2.904;2023-04-22T13:32:12;5.68;;;2.78;;
61188;SDS011;47054;39.716;2.904;2023-04-22T13:34:56;6.25;;;3.10;;
61188;SDS011;47054;39.716;2.904;2023-04-22T13:37:41;10.65;;;3.50;;
61188;SDS011;47054;39.716;2.904;2023-04-22T13:40:26;12.05;;;2.92;;
61188;SDS011;47054;39.716;2.904;2023-04-22T13:43:10;8.10;;;2.88;;
61188;SDS011;47054;39.716;2.904;2023-04-22T13:45:56;7.13;;;2.85;;
61188;SDS011;47054;39.716;2.904;2023-04-22T13:48:40;6.00;;;2.67;;
61188;SDS011;47054;39.716;2.904;2023-04-22T13:51:24;6.00;;;2.88;;
61188;SDS011;47054;39.716;2.904;2023-04-22T13:54:09;10.40;;;2.97;;
61188;SDS011;47054;39.716;2.904;2023-04-22T13:56:54;9.10;;;2.88;;
61188;SDS011;47054;39.716;2.904;2023-04-22T13:59:39;9.65;;;3.05;;
61188;SDS011;47054;39.716;2.904;2023-04-22T14:02:24;7.57;;;2.90;;
61188;SDS011;47054;39.716;2.904;2023-04-22T14:05:09;6.38;;;3.00;;
61188;SDS011;47054;39.716;2.904;2023-04-22T14:07:54;4.60;;;2.50;;
61188;SDS011;47054;39.716;2.904;2023-04-22T14:10:39;7.85;;;3.00;;
61188;SDS011;47054;39.716;2.904;2023-04-22T14:13:26;8.13;;;2.70;;
61188;SDS011;47054;39.716;2.904;2023-04-22T14:16:11;7.50;;;2.80;;
61188;SDS011;47054;39.716;2.904;2023-04-22T14:18:56;12.25;;;3.25;;
61188;SDS011;47054;39.716;2.904;2023-04-22T14:21:41;7.50;;;3.05;;
61188;SDS011;47054;39.716;2.904;2023-04-22T14:24:25;6.80;;;2.97;;
61188;SDS011;47054;39.716;2.904;2023-04-22T14:27:11;8.00;;;3.03;;
61188;SDS011;47054;39.716;2.904;2023-04-22T14:29:56;9.07;;;2.97;;
61188;SDS011;47054;39.716;2.904;2023-04-22T14:32:40;6.43;;;2.47;;
61188;SDS011;47054;39.716;2.904;2023-04-22T14:35:25;8.65;;;3.08;;
61188;SDS011;47054;39.716;2.904;2023-04-22T14:38:10;7.28;;;2.80;;
61188;SDS011;47054;39.716;2.904;2023-04-22T14:40:55;7.10;;;2.80;;
61188;SDS011;47054;39.716;2.904;2023-04-22T14:43:40;9.02;;;3.22;;
61188;SDS011;47054;39.716;2.904;2023-04-22T14:46:25;7.95;;;2.90;;
61188;SDS011;47054;39.716;2.904;2023-04-22T14:49:09;14.82;;;3.10;;
61188;SDS011;47054;39.716;2.904;2023-04-22T14:51:54;4.57;;;2.45;;
61188;SDS011;47054;39.716;2.904;2023-04-22T14:54:38;9.25;;;3.00;;
61188;SDS011;47054;39.716;2.904;2023-04-22T14:57:22;4.55;;;2.65;;
61188;SDS011;47054;39.716;2.904;2023-04-22T15:00:07;8.75;;;2.60;;
61188;SDS011;47054;39.716;2.904;2023-04-22T15:02:53;6.10;;;2.78;;
61188;SDS011;47054;39.716;2.904;2023-04-22T15:05:38;4.57;;;2.45;;
61188;SDS011;47054;39.716;2.904;2023-04-22T15:08:23;5.18;;;2.50;;
61188;SDS011;47054;39.716;2.904;2023-04-22T15:11:09;8.43;;;2.70;;
61188;SDS011;47054;39.716;2.904;2023-04-22T15:13:54;5.82;;;2.70;;
61188;SDS011;47054;39.716;2.904;2023-04-22T15:16:39;6.65;;;2.50;;
61188;SDS011;47054;39.716;2.904;2023-04-22T15:19:24;6.32;;;2.83;;
61188;SDS011;47054;39.716;2.904;2023-04-22T15:22:09;6.38;;;2.85;;
61188;SDS011;47054;39.716;2.904;2023-04-22T15:24:53;8.32;;;2.95;;
61188;SDS011;47054;39.716;2.904;2023-04-22T15:27:38;7.47;;;2.72;;
61188;SDS011;47054;39.716;2.904;2023-04-22T15:30:22;7.88;;;2.38;;
61188;SDS011;47054;39.716;2.904;2023-04-22T15:33:07;8.35;;;3.00;;
61188;SDS011;47054;39.716;2.904;2023-04-22T15:35:52;8.48;;;2.80;;
61188;SDS011;47054;39.716;2.904;2023-04-22T15:38:36;7.95;;;2.78;;
61188;SDS011;47054;39.716;2.904;2023-04-22T15:41:22;11.35;;;2.90;;
61188;SDS011;47054;39.716;2.904;2023-04-22T15:44:07;6.05;;;2.88;;
61188;SDS011;47054;39.716;2.904;2023-04-22T15:46:54;7.35;;;2.67;;
61188;SDS011;47054;39.716;2.904;2023-04-22T15:49:41;5.35;;;2.50;;
61188;SDS011;47054;39.716;2.904;2023-04-22T15:52:25;6.53;;;2.55;;
61188;SDS011;47054;39.716;2.904;2023-04-22T15:55:10;6.63;;;2.80;;
61188;SDS011;47054;39.716;2.904;2023-04-22T15:57:55;5.45;;;2.42;;
61188;SDS011;47054;39.716;2.904;2023-04-22T16:00:40;8.43;;;2.80;;
61188;SDS011;47054;39.716;2.904;2023-04-22T16:03:25;5.55;;;2.67;;
61188;SDS011;47054;39.716;2.904;2023-04-22T16:06:09;6.45;;;2.40;;
61188;SDS011;47054;39.716;2.904;2023-04-22T16:08:53;6.00;;;2.50;;
61188;SDS011;47054;39.716;2.904;2023-04-22T16:11:39;7.32;;;3.10;;
61188;SDS011;47054;39.716;2.904;2023-04-22T16:14:23;8.05;;;2.67;;
61188;SDS011;47054;39.716;2.904;2023-04-22T16:17:08;8.50;;;2.58;;
61188;SDS011;47054;39.716;2.904;2023-04-22T16:19:53;5.80;;;2.50;;
61188;SDS011;47054;39.716;2.904;2023-04-22T16:22:38;6.30;;;2.53;;
61188;SDS011;47054;39.716;2.904;2023-04-22T16:25:22;9.20;;;2.60;;
61188;SDS011;47054;39.716;2.904;2023-04-22T16:28:07;5.40;;;2.60;;
61188;SDS011;47054;39.716;2.904;2023-04-22T16:30:54;7.13;;;2.67;;
61188;SDS011;47054;39.716;2.904;2023-04-22T16:33:38;8.35;;;2.53;;
61188;SDS011;47054;39.716;2.904;2023-04-22T16:36:23;5.35;;;2.20;;
61188;SDS011;47054;39.716;2.904;2023-04-22T16:39:07;5.20;;;2.53;;
61188;SDS011;47054;39.716;2.904;2023-04-22T16:41:52;6.95;;;2.72;;
61188;SDS011;47054;39.716;2.904;2023-04-22T16:44:37;10.07;;;2.70;;